CST,Max TemperatureF,Mean TemperatureF,Min TemperatureF,Max Dew PointF,MeanDew PointF,Min DewpointF,Max Humidity, Mean Humidity, Min Humidity, Max Sea Level PressureIn, Mean Sea Level PressureIn, Min Sea Level PressureIn, Max VisibilityMiles, Mean VisibilityMiles, Min VisibilityMiles, Max Wind SpeedMPH, Mean Wind SpeedMPH, Max Gust SpeedMPH,PrecipitationIn, CloudCover, Events, WindDirDegrees
2014-1-1,7,5,3,3,0,-1,88,82,76,30.40,30.30,30.21,10,6,2,20,15,23,0.00,8,Snow,32
2014-1-2,5,-4,-14,0,-6,-16,87,78,68,30.53,30.45,30.30,10,10,9,20,11,22,T,3,,340
2014-1-3,28,7,-14,21,4,-17,87,77,66,30.47,30.06,29.66,10,10,8,29,17,36,0.00,1,,176
2014-1-4,33,21,8,26,14,0,81,75,69,30.21,29.91,29.65,10,10,9,30,18,35,0.00,4,,311
2014-1-5,8,-2,-13,-1,-11,-22,79,66,52,30.45,30.34,30.22,10,9,2,33,23,41,T,4,Snow,327
2014-1-6,-5,-11,-17,-14,-20,-26,72,67,62,30.47,30.39,30.30,10,10,7,31,18,37,0.00,4,,294
2014-1-7,10,0,-11,0,-6,-17,86,78,69,30.35,30.27,30.16,10,10,10,12,6,13,0.00,3,,144
2014-1-8,9,3,-4,-1,-4,-8,87,75,63,30.53,30.46,30.31,10,10,10,10,4,12,0.00,1,,18
2014-1-9,20,8,-5,18,7,-9,92,83,73,30.49,30.24,30.00,10,8,6,15,8,17,0.00,6,,138
2014-1-10,32,26,20,32,29,18,100,96,91,30.04,29.72,29.51,9,2,0,16,8,20,0.02,8,Fog-Rain-Snow,164
2014-1-11,31,26,20,30,25,19,100,91,81,29.84,29.66,29.50,10,8,5,25,12,32,0.00,5,,277
2014-1-12,42,32,21,32,28,20,92,78,64,29.78,29.59,29.47,10,10,10,29,12,36,0.00,1,,204
2014-1-13,39,34,29,32,27,23,89,78,66,29.78,29.70,29.59,10,10,10,28,13,32,0.00,4,,272
2014-1-14,38,25,12,33,18,6,89,79,68,30.15,29.90,29.54,10,9,2,43,26,53,0.03,7,Rain-Snow,300
2014-1-15,27,17,6,16,8,1,80,70,60,30.22,30.05,29.66,10,10,9,24,13,30,T,4,,262
2014-1-16,35,20,5,30,16,-2,78,70,61,29.94,29.70,29.53,10,9,2,38,21,45,T,7,Snow,304
2014-1-17,20,13,5,9,3,-2,83,73,62,30.09,30.01,29.89,10,10,8,23,15,30,T,3,Snow,302
2014-1-18,29,19,9,26,17,6,96,76,56,30.04,29.67,29.49,10,7,0,23,11,29,0.01,7,Fog-Snow,119
2014-1-19,44,29,13,32,24,12,92,77,62,29.95,29.74,29.58,10,10,10,21,14,27,0.00,0,,256
2014-1-20,36,21,5,30,20,0,100,90,80,30.35,30.03,29.79,10,4,0,35,15,42,T,7,Fog-Snow,336
2014-1-21,8,1,-6,1,-6,-14,83,73,62,30.50,30.36,30.13,10,10,5,29,11,37,T,3,Snow,260
2014-1-22,16,5,-6,9,0,-13,80,73,65,30.53,30.17,29.95,10,8,2,36,20,43,T,6,Snow,307
2014-1-23,3,-3,-10,-5,-11,-16,79,74,68,30.81,30.70,30.54,10,10,10,23,14,28,0.00,0,,289
2014-1-24,36,19,2,35,17,-6,92,75,57,30.47,29.83,29.55,10,10,6,30,19,40,0.01,5,Rain-Snow,241
2014-1-25,35,24,12,30,11,-3,89,68,47,29.99,29.79,29.60,10,9,2,35,18,46,T,4,Snow,297
2014-1-26,37,19,0,30,13,-10,82,68,54,30.19,29.69,29.39,10,8,1,48,26,57,T,7,Snow,307
2014-1-27,2,-3,-9,-8,-12,-16,83,70,57,30.54,30.38,30.15,10,10,2,38,16,45,T,3,Snow,311
2014-1-28,13,2,-10,-4,-9,-15,79,63,46,30.52,30.41,30.28,10,10,10,22,9,25,0.00,0,,271
2014-1-29,35,17,-2,14,3,-8,75,54,32,30.27,30.03,29.72,10,10,10,25,14,32,0.00,0,,208
2014-1-30,36,21,5,27,16,-2,92,69,45,30.09,29.71,29.50,10,8,0,31,20,39,T,5,Fog-Snow,258
2014-1-31,13,8,3,2,-1,-6,79,70,60,30.25,30.16,30.07,10,10,10,20,8,24,0.00,3,,26